createdAt,value
2017-06-14T00:11:08.889Z,12.08
2017-06-14T00:40:55.274Z,11.19
2017-06-14T01:00:55.411Z,11.24
2017-06-14T01:30:55.218Z,10.63
2017-06-14T01:50:55.233Z,10.26
2017-06-14T02:50:55.223Z,9.66
2017-06-14T03:21:07.939Z,9.49
2017-06-14T03:41:00.620Z,9.61
2017-06-14T04:01:03.453Z,10.3
2017-06-14T04:11:02.997Z,10.37
2017-06-14T04:50:55.256Z,11.2
2017-06-14T05:21:02.848Z,17.07
2017-06-14T05:30:56.381Z,16.38
2017-06-14T05:51:03.009Z,18.77
2017-06-14T06:10:55.364Z,27.29
2017-06-14T06:20:55.288Z,29.31
2017-06-14T06:30:55.247Z,30.52
2017-06-14T06:40:55.309Z,31.05
2017-06-14T06:50:56.317Z,31.87
2017-06-14T07:00:55.350Z,32.76
2017-06-14T07:11:01.545Z,32.81
2017-06-14T07:20:58.990Z,32.47
2017-06-14T07:30:55.281Z,33.68
2017-06-14T07:40:55.280Z,33.61
2017-06-14T07:50:55.341Z,34.38
2017-06-14T08:00:55.325Z,34.8
2017-06-14T08:10:55.236Z,34.36
2017-06-14T08:20:55.247Z,34.38
2017-06-14T08:30:55.271Z,35.28
2017-06-14T08:40:55.247Z,36.21
2017-06-14T08:50:55.249Z,36.54
2017-06-14T09:00:55.305Z,35.88
2017-06-14T09:10:55.262Z,34.34
2017-06-14T09:20:55.286Z,28.35
2017-06-14T09:30:55.286Z,25.62
2017-06-14T09:40:55.300Z,23.95
2017-06-14T09:50:55.332Z,23.5
2017-06-14T10:00:55.289Z,23.15
2017-06-14T10:10:55.280Z,23.19
2017-06-14T10:20:55.270Z,23.12
2017-06-14T10:30:55.305Z,23.34
2017-06-14T10:40:55.280Z,23.31
2017-06-14T10:50:55.287Z,23.57
2017-06-14T11:00:55.430Z,23.62
2017-06-14T11:10:55.292Z,23.6
2017-06-14T11:20:55.275Z,23.75
2017-06-14T11:30:55.303Z,23.77
2017-06-14T11:40:55.293Z,23.89
2017-06-14T11:50:55.289Z,24.26
2017-06-14T12:00:55.284Z,24.07
2017-06-14T12:10:55.300Z,24.34
2017-06-14T12:20:55.328Z,24.34
2017-06-14T12:30:55.392Z,24.56
2017-06-14T12:40:55.309Z,24.71
2017-06-14T12:50:55.298Z,24.83
2017-06-14T13:00:55.289Z,24.83
2017-06-14T13:10:55.327Z,24.82
2017-06-14T13:20:55.431Z,24.8
2017-06-14T13:30:55.378Z,24.97
2017-06-14T13:40:59.924Z,25.31
2017-06-14T13:50:55.411Z,25.28
2017-06-14T14:00:55.346Z,25.35
2017-06-14T14:10:55.514Z,25.49
2017-06-14T14:20:55.355Z,25.46
2017-06-14T14:30:55.420Z,25.44
2017-06-14T14:40:55.388Z,25.44
2017-06-14T14:50:55.375Z,25.49
2017-06-14T15:00:55.344Z,25.75
2017-06-14T15:10:55.355Z,25.75
2017-06-14T15:20:55.800Z,25.8
2017-06-14T15:30:55.360Z,25.68
2017-06-14T15:40:55.373Z,25.68
2017-06-14T15:50:55.347Z,25.64
2017-06-14T16:00:55.355Z,25.47
2017-06-14T16:10:55.360Z,25.61
2017-06-14T16:20:55.340Z,25.5
2017-06-14T16:30:55.395Z,25.53
2017-06-14T16:40:55.341Z,25.35
2017-06-14T16:50:55.359Z,25.38
2017-06-14T17:00:55.438Z,25.01
2017-06-14T17:10:55.360Z,24.98
2017-06-14T17:20:55.343Z,25.01
2017-06-14T17:30:55.394Z,24.52
2017-06-14T17:40:55.361Z,24.07
2017-06-14T17:50:55.388Z,23.95
2017-06-14T18:00:55.382Z,24.05
2017-06-14T18:10:55.381Z,23.82
2017-06-14T18:20:55.468Z,23.62
2017-06-14T18:30:55.439Z,22.83
2017-06-14T18:40:55.379Z,22.52
2017-06-14T18:50:55.462Z,22.23
2017-06-14T19:00:55.384Z,21.97
2017-06-14T19:10:55.368Z,21.54
2017-06-14T19:20:55.367Z,21.09
2017-06-14T19:30:55.372Z,20.74
2017-06-14T19:40:55.474Z,19.87
2017-06-14T19:50:55.439Z,19.32
2017-06-14T20:00:55.596Z,19.02
2017-06-14T20:10:55.449Z,18.54
2017-06-14T20:20:55.516Z,18.22
2017-06-14T20:30:55.462Z,17.92
2017-06-14T20:40:55.401Z,17.7
2017-06-14T20:50:55.661Z,17.59
2017-06-14T21:00:55.452Z,17.17
2017-06-14T21:10:55.522Z,16.99
2017-06-14T21:20:55.472Z,16.53
2017-06-14T21:30:55.504Z,16.3
2017-06-14T21:40:55.497Z,16.12
2017-06-14T21:50:55.472Z,15.86
2017-06-14T22:00:55.455Z,15.57
2017-06-14T22:10:55.405Z,15.54
2017-06-14T22:20:55.471Z,15.41
2017-06-14T22:30:55.426Z,15.27
2017-06-14T22:40:55.551Z,14.91
2017-06-14T22:50:55.472Z,15.01
2017-06-14T23:00:55.400Z,14.74
2017-06-14T23:10:55.466Z,14.64
2017-06-14T23:20:55.420Z,14.71
2017-06-14T23:30:55.490Z,14.61
2017-06-14T23:40:55.465Z,14.5
2017-06-14T23:50:55.398Z,14.34
